Daniela Morace — IJAJ2 — position and weather

sailwx.info

Track history (hours):
 
Tides and Currents Weather Stations Pressure Air Temp Water Temp Dewpoint Dewpoint Depression Visibility Wind Speed Wind Dir Waves Ship Positions

Daniela Morace

Last reported at 2015-Mar-03 06:33 UTC. Time now 2015-Mar-03 07:28 UTC.
Position N 38°01' E 012°30'.

Length 36 m.

Type: Ship. MMSI: 247297500.

Date/timePositionNaut miles runAvg speedWind from/ knotsBaromVisibWave heightAir tempDewpointWater temp
2015-Mar-03 06:33N 38°01' E 012°30'0 0.0
2015-Mar-02 14:28N 38°01' E 012°31'1 0.9
2015-Mar-02 13:33N 38°00' E 012°30'2020.1
2015-Mar-02 12:33N 37°58' E 012°05'1414.2
2015-Mar-02 11:33N 37°59' E 012°22'4 3.5
2015-Mar-02 10:33N 37°56' E 012°20'1010.0
2015-Mar-02 09:33N 38°01' E 012°31'6 5.9
2015-Mar-02 08:34N 37°58' E 012°24'4 3.6
2015-Mar-02 07:34N 37°60' E 012°28'2 1.8
2015-Mar-02 06:33N 38°01' E 012°30'1 0.1
2015-Mar-01 19:34N 38°00' E 012°29'3 2.8
2015-Mar-01 18:34N 37°59' E 012°26'3 3.0
2015-Mar-01 17:33N 38°00' E 012°30'4 3.5
2015-Mar-01 16:33N 37°59' E 012°26'6 5.5
2015-Mar-01 15:34N 37°56' E 012°20'9 9.2
2015-Mar-01 14:34N 38°00' E 012°30'3 3.3
2015-Mar-01 13:33N 37°59' E 012°26'4 0.2
2015-Feb-28 14:33N 38°01' E 012°31'1 1.1
2015-Feb-28 13:33N 38°00' E 012°30'2019.6
2015-Feb-28 12:33N 37°58' E 012°05'1615.8
2015-Feb-28 11:34N 37°58' E 012°24'4 4.5
2015-Feb-28 10:33N 37°56' E 012°20'1010.0
2015-Feb-28 09:33N 38°01' E 012°31'6 5.8
2015-Feb-28 08:33N 37°58' E 012°24'4 4.0
2015-Feb-28 07:33N 37°60' E 012°29'1 1.3
2015-Feb-28 06:33N 38°01' E 012°30'1 0.1
2015-Feb-27 19:33N 37°60' E 012°29'2 1.9
2015-Feb-27 18:34N 37°59' E 012°27'3 2.7
2015-Feb-27 17:33N 38°00' E 012°30'3 3.0
2015-Feb-27 16:34N 37°59' E 012°27'6 6.3
2015-Feb-27 15:33N 37°56' E 012°20'9 9.0
2015-Feb-27 14:33N 38°00' E 012°30'2 2.2
2015-Feb-27 13:33N 37°59' E 012°27'3 3.2
2015-Feb-27 12:33N 38°01' E 012°31'0 0.0
2015-Feb-27 11:33N 38°01' E 012°31'0 0.0
2015-Feb-27 10:33N 38°01' E 012°31'0 0.0
2015-Feb-27 09:33N 38°01' E 012°31'0 0.0
2015-Feb-27 08:33N 38°01' E 012°31'0 0.0
2015-Feb-27 07:33N 38°01' E 012°31'0 0.0
2015-Feb-26 14:14N 38°01' E 012°31'4 6.1
2015-Feb-26 13:33N 37°59' E 012°26'1717.0
2015-Feb-26 12:33N 37°58' E 012°05'1413.6
2015-Feb-26 11:33N 37°59' E 012°22'3 3.1
2015-Feb-26 10:33N 37°56' E 012°20'1010.1
2015-Feb-26 09:33N 38°01' E 012°31'6 6.0
2015-Feb-26 08:34N 37°58' E 012°24'6 0.4
2015-Feb-25 18:11N 38°01' E 012°31'1 1.4
2015-Feb-25 17:34N 38°00' E 012°30'4 4.0
2015-Feb-25 16:34N 37°59' E 012°25'5 5.2
2015-Feb-25 15:33N 37°56' E 012°20'1010.0
2015-Feb-25 14:33N 38°01' E 012°31'0 0.0
2015-Feb-25 13:33N 38°01' E 012°31'0 0.0
2015-Feb-25 11:33N 38°01' E 012°31'0 0.0
2015-Feb-25 10:33N 38°01' E 012°31'0 0.0
2015-Feb-25 09:33N 38°01' E 012°31'0 0.0
2015-Feb-25 08:33N 38°01' E 012°31'0 0.0
2015-Feb-25 07:33N 38°01' E 012°31'0 0.0
2015-Feb-24 13:24N 38°01' E 012°31'0 0.0
2015-Feb-24 12:33N 38°01' E 012°31'0 0.0
2015-Feb-24 11:33N 38°01' E 012°31'10 9.9
2015-Feb-24 10:33N 37°56' E 012°19'1010.0
2015-Feb-24 09:33N 38°01' E 012°31'6 5.6
2015-Feb-24 08:33N 37°58' E 012°24'2 2.1
2015-Feb-24 07:33N 37°59' E 012°27'3 3.1
2015-Feb-24 06:33N 38°01' E 012°30'0 0.0
2015-Feb-23 17:33N 38°01' E 012°31'0 0.0
2015-Feb-23 16:33N 38°01' E 012°31'9 9.4
2015-Feb-23 15:34N 37°57' E 012°20'9 9.4
2015-Feb-23 14:33N 38°01' E 012°31'0 0.0
2015-Feb-23 13:33N 38°01' E 012°31'0 0.0
2015-Feb-23 12:32N 38°01' E 012°31'0 0.0
2015-Feb-23 11:33N 38°01' E 012°31'0 0.0
2015-Feb-23 10:33N 38°01' E 012°31'0 0.0
2015-Feb-23 09:33N 38°01' E 012°31'0 0.0
2015-Feb-23 08:33N 38°01' E 012°31'1 0.0
2015-Feb-22 13:34N 38°00' E 012°30'2019.6
2015-Feb-22 12:34N 37°58' E 012°05'1313.1
2015-Feb-22 11:34N 37°58' E 012°22'3 2.9
2015-Feb-22 10:33N 37°56' E 012°20'1010.0
2015-Feb-22 09:33N 38°01' E 012°31'5 5.4
2015-Feb-22 08:34N 37°58' E 012°25'3 2.9
2015-Feb-22 07:33N 37°60' E 012°28'2 0.1
2015-Feb-21 10:33N 38°01' E 012°31'0 0.0
2015-Feb-21 09:33N 38°01' E 012°31'0 0.0
2015-Feb-21 08:33N 38°01' E 012°31'0 0.0
2015-Feb-21 07:33N 38°01' E 012°31'  
Track history (hours):
 
Tides and Currents Weather Stations Pressure Air Temp Water Temp Dewpoint Dewpoint Depression Visibility Wind Speed Wind Dir Waves Ship Positions

Daniela Morace

Last reported at 2015-Mar-03 06:33 UTC. Time now 2015-Mar-03 07:28 UTC.
Position N 38°01' E 012°30'.

Length 36 m.

Type: Ship. MMSI: 247297500.

Date/timePositionNaut miles runAvg speedWind from/ knotsBaromVisibWave heightAir tempDewpointWater temp
2015-Mar-03 06:33N 38°01' E 012°30'0 0.0
2015-Mar-02 14:28N 38°01' E 012°31'1 0.9
2015-Mar-02 13:33N 38°00' E 012°30'2020.1
2015-Mar-02 12:33N 37°58' E 012°05'1414.2
2015-Mar-02 11:33N 37°59' E 012°22'4 3.5
2015-Mar-02 10:33N 37°56' E 012°20'1010.0
2015-Mar-02 09:33N 38°01' E 012°31'6 5.9
2015-Mar-02 08:34N 37°58' E 012°24'4 3.6
2015-Mar-02 07:34N 37°60' E 012°28'2 1.8
2015-Mar-02 06:33N 38°01' E 012°30'1 0.1
2015-Mar-01 19:34N 38°00' E 012°29'3 2.8
2015-Mar-01 18:34N 37°59' E 012°26'3 3.0
2015-Mar-01 17:33N 38°00' E 012°30'4 3.5
2015-Mar-01 16:33N 37°59' E 012°26'6 5.5
2015-Mar-01 15:34N 37°56' E 012°20'9 9.2
2015-Mar-01 14:34N 38°00' E 012°30'3 3.3
2015-Mar-01 13:33N 37°59' E 012°26'4 0.2
2015-Feb-28 14:33N 38°01' E 012°31'1 1.1
2015-Feb-28 13:33N 38°00' E 012°30'2019.6
2015-Feb-28 12:33N 37°58' E 012°05'1615.8
2015-Feb-28 11:34N 37°58' E 012°24'4 4.5
2015-Feb-28 10:33N 37°56' E 012°20'1010.0
2015-Feb-28 09:33N 38°01' E 012°31'6 5.8
2015-Feb-28 08:33N 37°58' E 012°24'4 4.0
2015-Feb-28 07:33N 37°60' E 012°29'1 1.3
2015-Feb-28 06:33N 38°01' E 012°30'1 0.1
2015-Feb-27 19:33N 37°60' E 012°29'2 1.9
2015-Feb-27 18:34N 37°59' E 012°27'3 2.7
2015-Feb-27 17:33N 38°00' E 012°30'3 3.0
2015-Feb-27 16:34N 37°59' E 012°27'6 6.3
2015-Feb-27 15:33N 37°56' E 012°20'9 9.0
2015-Feb-27 14:33N 38°00' E 012°30'2 2.2
2015-Feb-27 13:33N 37°59' E 012°27'3 3.2
2015-Feb-27 12:33N 38°01' E 012°31'0 0.0
2015-Feb-27 11:33N 38°01' E 012°31'0 0.0
2015-Feb-27 10:33N 38°01' E 012°31'0 0.0
2015-Feb-27 09:33N 38°01' E 012°31'0 0.0
2015-Feb-27 08:33N 38°01' E 012°31'0 0.0
2015-Feb-27 07:33N 38°01' E 012°31'0 0.0
2015-Feb-26 14:14N 38°01' E 012°31'4 6.1
2015-Feb-26 13:33N 37°59' E 012°26'1717.0
2015-Feb-26 12:33N 37°58' E 012°05'1413.6
2015-Feb-26 11:33N 37°59' E 012°22'3 3.1
2015-Feb-26 10:33N 37°56' E 012°20'1010.1
2015-Feb-26 09:33N 38°01' E 012°31'6 6.0
2015-Feb-26 08:34N 37°58' E 012°24'6 0.4
2015-Feb-25 18:11N 38°01' E 012°31'1 1.4
2015-Feb-25 17:34N 38°00' E 012°30'4 4.0
2015-Feb-25 16:34N 37°59' E 012°25'5 5.2
2015-Feb-25 15:33N 37°56' E 012°20'1010.0
2015-Feb-25 14:33N 38°01' E 012°31'0 0.0
2015-Feb-25 13:33N 38°01' E 012°31'0 0.0
2015-Feb-25 11:33N 38°01' E 012°31'0 0.0
2015-Feb-25 10:33N 38°01' E 012°31'0 0.0
2015-Feb-25 09:33N 38°01' E 012°31'0 0.0
2015-Feb-25 08:33N 38°01' E 012°31'0 0.0
2015-Feb-25 07:33N 38°01' E 012°31'0 0.0
2015-Feb-24 13:24N 38°01' E 012°31'0 0.0
2015-Feb-24 12:33N 38°01' E 012°31'0 0.0
2015-Feb-24 11:33N 38°01' E 012°31'10 9.9
2015-Feb-24 10:33N 37°56' E 012°19'1010.0
2015-Feb-24 09:33N 38°01' E 012°31'6 5.6
2015-Feb-24 08:33N 37°58' E 012°24'2 2.1
2015-Feb-24 07:33N 37°59' E 012°27'3 3.1
2015-Feb-24 06:33N 38°01' E 012°30'0 0.0
2015-Feb-23 17:33N 38°01' E 012°31'0 0.0
2015-Feb-23 16:33N 38°01' E 012°31'9 9.4
2015-Feb-23 15:34N 37°57' E 012°20'9 9.4
2015-Feb-23 14:33N 38°01' E 012°31'0 0.0
2015-Feb-23 13:33N 38°01' E 012°31'0 0.0
2015-Feb-23 12:32N 38°01' E 012°31'0 0.0
2015-Feb-23 11:33N 38°01' E 012°31'0 0.0
2015-Feb-23 10:33N 38°01' E 012°31'0 0.0
2015-Feb-23 09:33N 38°01' E 012°31'0 0.0
2015-Feb-23 08:33N 38°01' E 012°31'1 0.0
2015-Feb-22 13:34N 38°00' E 012°30'2019.6
2015-Feb-22 12:34N 37°58' E 012°05'1313.1
2015-Feb-22 11:34N 37°58' E 012°22'3 2.9
2015-Feb-22 10:33N 37°56' E 012°20'1010.0
2015-Feb-22 09:33N 38°01' E 012°31'5 5.4
2015-Feb-22 08:34N 37°58' E 012°25'3 2.9
2015-Feb-22 07:33N 37°60' E 012°28'2 0.1
2015-Feb-21 10:33N 38°01' E 012°31'0 0.0
2015-Feb-21 09:33N 38°01' E 012°31'0 0.0
2015-Feb-21 08:33N 38°01' E 012°31'0 0.0
2015-Feb-21 07:33N 38°01' E 012°31'  

Dump ship's entire track history